Time;durP1;ratioP1;P1;durP2;ratioP2;P2;SDS_P1;SDS_P2;PMS_P1;PMS_P2;Temp;Humidity;BMP_temperature;BMP_pressure;BME280_temperature;BME280_humidity;BME280_pressure;Samples;Min_cycle;Max_cycle;Signal;HPM_P1;HPM_P2
2023/02/01 00:02:00;;;;;;;0.13;0.13;;;;;;;6.80;91.99;100363.63;4931464;29;20091;-60
2023/02/01 00:04:25;;;;;;;1.30;0.82;;;;;;;6.76;92.11;100357.38;4930318;29;20039;-59
2023/02/01 00:06:51;;;;;;;0.20;0.20;;;;;;;7.08;90.82;100358.34;4949241;28;20389;-59
2023/02/01 00:09:16;;;;;;;0.10;0.10;;;;;;;6.81;92.95;100361.75;4932331;29;20106;-56
2023/02/01 00:11:42;;;;;;;0.10;0.10;;;;;;;6.68;93.38;100360.97;4927705;29;20035;-60
2023/02/01 00:14:08;;;;;;;0.20;0.20;;;;;;;6.61;94.21;100373.34;4947532;28;20131;-60
2023/02/01 00:16:34;;;;;;;0.20;0.20;;;;;;;7.01;92.63;100366.94;4947704;28;20106;-59
2023/02/01 00:19:12;;;;;;;0.22;0.22;;;;;;;6.82;94.24;100349.91;4935316;29;20041;-59
2023/02/01 00:21:38;;;;;;;0.20;0.20;;;;;;;6.90;94.08;100360.50;4926382;29;20036;-60
2023/02/01 00:24:04;;;;;;;0.20;0.20;;;;;;;7.04;93.73;100347.53;4933753;29;20055;-60
2023/02/01 00:26:44;;;;;;;0.30;0.30;;;;;;;6.70;95.87;100344.56;4933763;29;20261;-60
2023/02/01 00:29:19;;;;;;;0.30;0.30;;;;;;;6.85;95.98;100339.31;4949764;28;20028;-59
2023/02/01 00:31:44;;;;;;;0.20;0.20;;;;;;;6.66;96.07;100335.69;4947107;28;20074;-59
2023/02/01 00:34:13;;;;;;;0.35;0.35;;;;;;;6.82;95.45;100334.63;4934455;29;20058;-60
2023/02/01 00:36:39;;;;;;;0.20;0.20;;;;;;;7.06;94.44;100336.50;4932467;29;20035;-60
2023/02/01 00:39:04;;;;;;;1.65;1.10;;;;;;;7.10;93.29;100340.81;4932518;29;20031;-60
2023/02/01 00:41:30;;;;;;;0.20;0.20;;;;;;;6.97;93.94;100341.97;4934544;29;20031;-60
2023/02/01 00:43:56;;;;;;;0.30;0.30;;;;;;;6.96;94.09;100340.41;4929908;29;20042;-60
2023/02/01 00:46:22;;;;;;;0.20;0.20;;;;;;;6.60;94.46;100335.09;4948695;28;20024;-60
2023/02/01 00:48:47;;;;;;;0.50;0.50;;;;;;;6.40;96.38;100341.38;4932201;29;20570;-59
2023/02/01 00:51:16;;;;;;;0.35;0.35;;;;;;;6.60;96.65;100329.00;4933347;29;20087;-60
2023/02/01 00:53:42;;;;;;;0.20;0.20;;;;;;;7.02;93.82;100347.09;4931702;29;20036;-60
2023/02/01 00:56:08;;;;;;;0.20;0.20;;;;;;;6.85;94.41;100341.22;4948770;28;20024;-61
2023/02/01 00:58:34;;;;;;;0.10;0.10;;;;;;;7.04;94.22;100344.06;4927264;29;20036;-61
2023/02/01 01:01:25;;;;;;;0.25;0.25;;;;;;;7.49;91.73;100341.91;4947658;28;20031;-61
2023/02/01 01:03:53;;;;;;;0.20;0.20;;;;;;;7.36;91.61;100340.41;4931326;29;20094;-60
2023/02/01 01:06:21;;;;;;;0.10;0.10;;;;;;;7.00;93.93;100333.28;4948462;28;20332;-58
2023/02/01 01:08:46;;;;;;;0.68;0.68;;;;;;;6.96;94.70;100327.03;4931617;29;20042;-61
2023/02/01 01:11:18;;;;;;;0.20;0.20;;;;;;;7.30;93.42;100334.50;4933184;29;20491;-60
2023/02/01 01:13:47;;;;;;;0.20;0.20;;;;;;;7.37;93.08;100325.13;4943847;28;20028;-60
2023/02/01 01:16:12;;;;;;;0.10;0.10;;;;;;;7.38;92.44;100340.06;4944047;28;20055;-60
2023/02/01 01:18:38;;;;;;;0.20;0.20;;;;;;;7.30;92.60;100334.50;4946173;28;20036;-61
2023/02/01 01:21:06;;;;;;;0.35;0.35;;;;;;;7.00;94.52;100327.91;4929097;29;20649;-60
2023/02/01 01:23:32;;;;;;;0.20;0.20;;;;;;;7.32;93.40;100326.91;4934218;29;20028;-61
2023/02/01 01:25:57;;;;;;;0.35;0.35;;;;;;;7.01;94.37;100329.47;4934287;29;20068;-60
2023/02/01 01:28:23;;;;;;;0.20;0.20;;;;;;;6.57;96.70;100319.72;4931121;29;20447;-60
2023/02/01 01:30:48;;;;;;;2.28;0.75;;;;;;;6.92;96.03;100314.66;4942012;28;20164;-61
2023/02/01 01:33:14;;;;;;;0.20;0.20;;;;;;;6.59;97.72;100316.72;4930824;29;20032;-60
2023/02/01 01:35:40;;;;;;;0.10;0.10;;;;;;;7.26;94.95;100308.75;4947570;28;20509;-60
2023/02/01 01:38:05;;;;;;;0.60;0.60;;;;;;;7.15;94.22;100310.34;4945653;28;20163;-60
2023/02/01 01:40:31;;;;;;;0.60;0.60;;;;;;;7.14;94.64;100303.44;4946271;28;20046;-60
2023/02/01 01:42:59;;;;;;;0.20;0.20;;;;;;;7.10;95.08;100295.28;4932174;29;20062;-60
2023/02/01 01:45:30;;;;;;;0.30;0.30;;;;;;;7.03;95.27;100295.09;4931946;29;20027;-60
2023/02/01 01:50:28;;;;;;;0.73;0.73;;;;;;;7.21;94.11;100290.25;4946454;28;20131;-71
2023/02/01 01:52:57;;;;;;;0.20;0.20;;;;;;;7.31;93.86;100284.41;4949516;29;20039;-70
2023/02/01 01:55:25;;;;;;;0.30;0.30;;;;;;;7.14;94.60;100298.84;4952606;28;20472;-71
2023/02/01 01:58:01;;;;;;;0.10;0.10;;;;;;;7.32;94.31;100278.72;4948772;28;20028;-71
2023/02/01 02:00:27;;;;;;;0.30;0.30;;;;;;;7.10;94.34;100270.44;4946485;29;20134;-70
2023/02/01 02:03:11;;;;;;;0.20;0.20;;;;;;;7.05;95.42;100260.75;4951172;28;20118;-70
2023/02/01 02:05:38;;;;;;;0.52;0.52;;;;;;;7.40;94.39;100277.00;4950598;28;20031;-71
2023/02/01 02:08:23;;;;;;;0.30;0.30;;;;;;;7.57;93.18;100270.56;4948366;28;20027;-71
2023/02/01 02:10:59;;;;;;;0.52;0.52;;;;;;;7.68;91.98;100280.44;4903999;29;20052;-71
2023/02/01 02:13:38;;;;;;;0.20;0.20;;;;;;;7.57;92.53;100255.25;4895977;29;20047;-71
2023/02/01 02:16:23;;;;;;;0.20;0.20;;;;;;;7.49;92.57;100263.47;4895608;29;20052;-71
2023/02/01 02:19:09;;;;;;;0.20;0.20;;;;;;;7.55;92.44;100262.09;4908476;29;20047;-70
2023/02/01 02:21:54;;;;;;;0.38;0.38;;;;;;;7.47;92.65;100258.44;4904570;29;20135;-69
2023/02/01 02:24:53;;;;;;;0.25;0.25;;;;;;;7.30;93.64;100261.41;4901742;29;20033;-71
2023/02/01 02:27:36;;;;;;;0.70;0.70;;;;;;;7.43;93.32;100249.53;4909076;29;20549;-71
2023/02/01 02:30:34;;;;;;;0.13;0.13;;;;;;;7.55;92.83;100240.66;4893748;29;20036;-71
2023/02/01 02:33:29;;;;;;;0.15;0.15;;;;;;;7.67;91.99;100243.25;4911811;29;20187;-71
2023/02/01 02:36:03;;;;;;;1.52;1.45;;;;;;;7.65;91.88;100234.75;4911362;29;20040;-70
2023/02/01 02:38:42;;;;;;;0.43;0.43;;;;;;;7.45;92.79;100231.22;4890929;29;20036;-70
2023/02/01 02:48:24;;;;;;;0.80;0.80;;;;;;;7.43;93.83;100228.13;4911539;28;20054;-71
2023/02/01 03:05:18;;;;;;;0.20;0.20;;;;;;;7.05;98.19;100223.28;4946371;28;20098;-69
2023/02/01 03:07:51;;;;;;;0.20;0.20;;;;;;;6.98;98.75;100217.75;4947904;28;20444;-71
2023/02/01 03:10:40;;;;;;;0.20;0.20;;;;;;;6.81;100.00;100207.31;4949501;28;20023;-71
2023/02/01 03:13:26;;;;;;;0.32;0.32;;;;;;;7.20;98.62;100200.34;4943944;29;20150;-71
2023/02/01 03:15:57;;;;;;;0.60;0.60;;;;;;;7.53;96.97;100192.75;4950082;28;20031;-71
2023/02/01 03:18:50;;;;;;;0.20;0.20;;;;;;;7.36;97.30;100187.75;4949772;29;20055;-71
2023/02/01 03:21:22;;;;;;;0.20;0.20;;;;;;;7.10;99.21;100190.91;4934767;29;20058;-71
2023/02/01 03:23:50;;;;;;;0.20;0.20;;;;;;;7.27;98.70;100189.81;4952256;29;20077;-71
2023/02/01 03:26:18;;;;;;;0.20;0.20;;;;;;;7.59;97.01;100188.69;4943909;28;20035;-71
2023/02/01 03:28:52;;;;;;;0.20;0.20;;;;;;;7.46;97.51;100179.19;4967734;28;20034;-71
2023/02/01 03:31:17;;;;;;;0.70;0.70;;;;;;;7.20;99.25;100171.66;4954491;28;20039;-71
2023/02/01 03:33:43;;;;;;;0.28;0.28;;;;;;;7.28;99.29;100181.44;4954023;28;20078;-68
2023/02/01 03:36:19;;;;;;;0.20;0.20;;;;;;;7.34;98.49;100189.22;4938460;28;20067;-73
2023/02/01 03:38:54;;;;;;;0.20;0.20;;;;;;;7.03;100.00;100190.72;4954978;28;20488;-71
2023/02/01 03:41:50;;;;;;;0.10;0.10;;;;;;;6.82;100.00;100192.81;4953539;28;20157;-70
2023/02/01 03:44:22;;;;;;;0.20;0.20;;;;;;;6.96;100.00;100187.84;4954020;29;20039;-71
2023/02/01 03:46:57;;;;;;;0.20;0.20;;;;;;;6.86;100.00;100183.00;4949529;28;20031;-71
2023/02/01 03:49:38;;;;;;;0.10;0.10;;;;;;;7.12;100.00;100188.66;4949113;28;20472;-71
2023/02/01 03:52:08;;;;;;;0.20;0.20;;;;;;;7.13;99.84;100179.50;4954747;28;20042;-71
2023/02/01 03:54:35;;;;;;;0.20;0.20;;;;;;;7.32;99.02;100174.25;4950359;29;20042;-70
2023/02/01 03:57:09;;;;;;;0.47;0.47;;;;;;;7.05;99.36;100168.94;4952036;29;20109;-70
2023/02/01 03:59:40;;;;;;;0.17;0.17;;;;;;;6.88;100.00;100169.25;4951629;29;20058;-70
2023/02/01 04:02:05;;;;;;;0.20;0.20;;;;;;;6.75;100.00;100160.53;4954177;28;20094;-70
2023/02/01 04:04:31;;;;;;;0.20;0.20;;;;;;;6.94;100.00;100157.19;4949218;28;20439;-72
2023/02/01 04:06:56;;;;;;;0.20;0.20;;;;;;;6.91;100.00;100152.53;4942843;29;20051;-70
2023/02/01 04:09:22;;;;;;;0.20;0.20;;;;;;;7.03;99.17;100165.84;4948994;28;20058;-71
2023/02/01 04:11:47;;;;;;;0.35;0.35;;;;;;;7.09;99.64;100151.88;4954631;28;20039;-70
2023/02/01 04:14:13;;;;;;;0.20;0.20;;;;;;;7.16;98.20;100145.94;4952602;29;20054;-70
2023/02/01 04:16:38;;;;;;;0.20;0.20;;;;;;;6.89;99.75;100149.44;4951106;28;20038;-70
2023/02/01 04:19:03;;;;;;;0.20;0.20;;;;;;;6.70;100.00;100149.25;4951750;29;20047;-71
2023/02/01 04:21:29;;;;;;;0.20;0.20;;;;;;;6.83;100.00;100140.09;4954863;28;20046;-70
2023/02/01 04:23:55;;;;;;;0.20;0.20;;;;;;;7.05;100.00;100140.28;4947238;28;20039;-70
2023/02/01 04:26:21;;;;;;;0.20;0.20;;;;;;;6.88;100.00;100129.91;4945606;29;20399;-70
2023/02/01 04:28:47;;;;;;;0.22;0.22;;;;;;;7.08;99.77;100131.56;4952855;29;20035;-70
2023/02/01 04:31:17;;;;;;;0.10;0.10;;;;;;;7.00;100.00;100140.56;4935495;28;20065;-70
2023/02/01 04:33:43;;;;;;;0.20;0.20;;;;;;;6.82;100.00;100135.84;4950660;28;20039;-68
2023/02/01 04:36:09;;;;;;;0.20;0.20;;;;;;;6.92;100.00;100138.81;4952292;29;20027;-69
2023/02/01 04:38:35;;;;;;;0.20;0.20;;;;;;;6.97;100.00;100119.81;4952938;28;20317;-69
2023/02/01 04:41:00;;;;;;;0.20;0.20;;;;;;;7.11;99.53;100112.16;4948554;28;20031;-69
2023/02/01 04:43:26;;;;;;;0.20;0.20;;;;;;;7.11;98.43;100117.50;4950954;29;20094;-69
2023/02/01 04:45:52;;;;;;;0.20;0.20;;;;;;;6.84;100.00;100110.31;4952455;29;20523;-69
2023/02/01 04:48:19;;;;;;;0.25;0.25;;;;;;;6.79;100.00;100107.09;4944393;28;20035;-69
2023/02/01 04:50:47;;;;;;;0.65;0.65;;;;;;;6.66;100.00;100103.69;4950299;29;20023;-69
2023/02/01 04:53:15;;;;;;;0.30;0.30;;;;;;;6.84;100.00;100112.97;4952567;28;20049;-69
2023/02/01 04:55:41;;;;;;;0.20;0.20;;;;;;;6.89;100.00;100096.66;4949681;28;20579;-69
2023/02/01 04:58:07;;;;;;;0.20;0.20;;;;;;;6.84;100.00;100101.50;4943059;28;20031;-69
2023/02/01 05:00:33;;;;;;;0.17;0.17;;;;;;;6.92;100.00;100105.91;4939924;29;20087;-69
2023/02/01 05:02:58;;;;;;;0.20;0.20;;;;;;;7.04;99.99;100108.53;4938931;28;20050;-69
2023/02/01 05:05:24;;;;;;;1.00;1.00;;;;;;;6.87;100.00;100093.56;4954520;28;20055;-70
2023/02/01 05:07:49;;;;;;;0.20;0.20;;;;;;;6.66;100.00;100109.06;4925207;29;20544;-69
2023/02/01 05:10:15;;;;;;;0.20;0.20;;;;;;;6.88;100.00;100115.75;4945485;28;20089;-70
2023/02/01 05:15:27;;;;;;;0.20;0.20;;;;;;;6.81;100.00;100094.94;4954829;28;20348;-70
2023/02/01 05:17:53;;;;;;;0.20;0.20;;;;;;;6.58;100.00;100112.66;4952765;28;20135;-70
2023/02/01 05:20:18;;;;;;;0.32;0.32;;;;;;;6.74;100.00;53789.88;4955804;28;20082;-70
2023/02/01 05:22:44;;;;;;;0.20;0.20;;;;;;;6.37;100.00;100128.09;4956118;28;20504;-70
2023/02/01 05:25:09;;;;;;;0.20;0.20;;;;;;;6.41;100.00;100145.03;4953950;28;20035;-70
2023/02/01 05:27:35;;;;;;;0.20;0.20;;;;;;;6.23;100.00;100133.06;4953897;28;20035;-70
2023/02/01 05:30:00;;;;;;;0.20;0.20;;;;;;;6.12;100.00;100115.91;4950869;28;20166;-70
2023/02/01 05:32:26;;;;;;;0.20;0.20;;;;;;;5.99;100.00;100111.72;4950998;28;20034;-70
2023/02/01 05:34:51;;;;;;;0.22;0.22;;;;;;;6.11;100.00;100117.06;4951667;28;20043;-70
2023/02/01 05:37:17;;;;;;;0.20;0.20;;;;;;;6.30;100.00;100101.97;4947100;28;20627;-70
2023/02/01 05:39:42;;;;;;;0.20;0.20;;;;;;;5.91;100.00;100108.06;4949928;29;20039;-70
2023/02/01 05:42:07;;;;;;;0.20;0.20;;;;;;;6.33;99.75;100081.78;4952349;28;20041;-70
2023/02/01 05:44:33;;;;;;;0.20;0.20;;;;;;;5.91;100.00;100088.59;4932398;29;20417;-70
2023/02/01 05:46:58;;;;;;;0.20;0.20;;;;;;;6.07;99.89;100097.47;4950719;28;20403;-70
2023/02/01 05:49:24;;;;;;;0.20;0.20;;;;;;;5.85;100.00;100111.28;4944245;29;20031;-70
2023/02/01 05:51:49;;;;;;;0.20;0.20;;;;;;;5.88;100.00;100118.66;4943523;28;20546;-70
2023/02/01 05:54:15;;;;;;;0.20;0.20;;;;;;;5.70;100.00;100110.06;4948466;29;20553;-71
2023/02/01 05:56:40;;;;;;;0.20;0.20;;;;;;;5.41;100.00;100119.09;4926328;29;20034;-70
2023/02/01 05:59:06;;;;;;;0.20;0.20;;;;;;;5.29;100.00;100121.75;4948196;28;20046;-70
2023/02/01 06:01:31;;;;;;;0.20;0.20;;;;;;;5.26;100.00;100119.75;4945184;28;20039;-71
2023/02/01 06:03:57;;;;;;;0.20;0.20;;;;;;;5.57;100.00;100121.88;4950619;28;20035;-70
2023/02/01 06:06:22;;;;;;;0.20;0.20;;;;;;;5.44;100.00;100131.75;4943342;28;20042;-71
2023/02/01 06:08:47;;;;;;;0.20;0.20;;;;;;;5.65;100.00;100122.88;4947352;28;20039;-70
2023/02/01 06:11:13;;;;;;;0.20;0.20;;;;;;;5.74;100.00;100131.53;4924982;29;20046;-70
2023/02/01 06:13:38;;;;;;;0.20;0.20;;;;;;;5.62;100.00;100124.31;4942279;28;20520;-71
2023/02/01 06:16:06;;;;;;;0.20;0.20;;;;;;;5.42;100.00;100114.50;4945397;28;20031;-71
2023/02/01 06:18:33;;;;;;;0.20;0.20;;;;;;;5.69;100.00;100113.09;4946007;28;20103;-70
2023/02/01 06:21:02;;;;;;;0.20;0.20;;;;;;;5.90;100.00;100119.09;4943045;29;20085;-70
2023/02/01 06:23:29;;;;;;;0.20;0.20;;;;;;;5.99;100.00;100122.41;4945498;28;20089;-70
2023/02/01 06:26:03;;;;;;;0.28;0.28;;;;;;;6.13;99.18;100120.16;4947070;28;20050;-70
2023/02/01 06:28:29;;;;;;;0.20;0.20;;;;;;;5.94;100.00;100122.66;4942163;28;20546;-70
2023/02/01 06:30:54;;;;;;;0.20;0.20;;;;;;;5.93;99.70;100108.50;4927046;29;20026;-70
2023/02/01 06:33:21;;;;;;;0.20;0.20;;;;;;;5.95;100.00;100108.16;4954663;28;20078;-70
2023/02/01 06:35:47;;;;;;;0.20;0.20;;;;;;;5.80;100.00;100109.63;4945014;28;20468;-70
2023/02/01 06:38:12;;;;;;;0.22;0.22;;;;;;;5.90;100.00;100113.75;4948051;28;20038;-71
2023/02/01 06:40:39;;;;;;;0.20;0.20;;;;;;;5.97;100.00;100105.94;4945087;29;20119;-71
2023/02/01 06:43:04;;;;;;;0.20;0.20;;;;;;;6.16;100.00;100101.56;4944876;28;20039;-71
2023/02/01 06:45:30;;;;;;;0.20;0.20;;;;;;;6.22;99.19;100104.75;4945596;28;20040;-70
2023/02/01 06:47:55;;;;;;;0.20;0.20;;;;;;;6.29;99.57;100103.06;4925851;29;20050;-71
2023/02/01 06:50:21;;;;;;;0.20;0.20;;;;;;;6.10;100.00;100102.13;4928356;28;20031;-71
2023/02/01 06:52:46;;;;;;;0.25;0.25;;;;;;;6.01;100.00;100110.28;4947591;28;20154;-70
2023/02/01 06:55:12;;;;;;;0.20;0.20;;;;;;;6.15;100.00;100109.91;4936941;28;20049;-70
2023/02/01 06:57:58;;;;;;;0.50;0.50;;;;;;;6.37;100.00;100117.41;4944260;28;20367;-70
2023/02/01 07:00:24;;;;;;;0.20;0.20;;;;;;;6.24;100.00;100107.88;4927763;29;20047;-70
2023/02/01 07:02:50;;;;;;;0.20;0.20;;;;;;;6.34;100.00;100108.19;4912230;29;20186;-70
2023/02/01 07:05:16;;;;;;;0.20;0.20;;;;;;;6.57;98.82;100102.28;4926114;29;20082;-70
2023/02/01 07:07:42;;;;;;;0.20;0.20;;;;;;;6.42;100.00;100108.38;4923582;29;20040;-69
2023/02/01 07:10:09;;;;;;;0.20;0.20;;;;;;;6.11;100.00;100106.38;4908944;29;20036;-70
2023/02/01 07:12:34;;;;;;;0.20;0.20;;;;;;;5.87;100.00;100115.19;4926558;29;20042;-70
2023/02/01 07:15:01;;;;;;;0.20;0.20;;;;;;;5.97;100.00;100108.63;4903486;29;20488;-70
2023/02/01 07:17:28;;;;;;;0.20;0.20;;;;;;;6.31;100.00;100113.41;4926714;29;20461;-70
2023/02/01 07:19:54;;;;;;;0.20;0.20;;;;;;;6.17;100.00;100113.03;4922978;29;20082;-70
2023/02/01 07:22:19;;;;;;;0.73;0.73;;;;;;;6.29;100.00;100107.66;4908773;29;20067;-69
2023/02/01 07:24:45;;;;;;;0.13;0.13;;;;;;;6.37;100.00;100109.38;4927666;29;20086;-70
2023/02/01 07:27:10;;;;;;;0.20;0.20;;;;;;;6.14;100.00;100101.13;4925209;29;20044;-69
2023/02/01 07:29:35;;;;;;;0.20;0.20;;;;;;;6.01;100.00;100106.81;4907241;29;20545;-69
2023/02/01 07:32:02;;;;;;;0.20;0.20;;;;;;;6.27;100.00;100115.25;4927435;29;20036;-70
2023/02/01 07:34:28;;;;;;;0.25;0.25;;;;;;;6.16;100.00;100101.56;4927425;29;20032;-70
2023/02/01 07:36:53;;;;;;;1.85;0.80;;;;;;;6.14;100.00;100097.66;4917009;29;20082;-70
2023/02/01 07:39:19;;;;;;;0.20;0.20;;;;;;;5.98;100.00;100104.84;4945775;29;20043;-70
2023/02/01 07:41:46;;;;;;;0.20;0.20;;;;;;;6.26;100.00;100105.66;4942978;28;20501;-70
2023/02/01 07:44:12;;;;;;;0.20;0.20;;;;;;;6.02;100.00;100105.72;4948090;29;20483;-70
2023/02/01 07:46:39;;;;;;;0.20;0.20;;;;;;;6.10;100.00;100118.16;4939660;28;20604;-69
2023/02/01 07:49:05;;;;;;;0.10;0.10;;;;;;;6.22;100.00;100129.59;4973265;23;20182;-58
2023/02/01 07:51:30;;;;;;;0.20;0.20;;;;;;;6.08;100.00;100104.34;4944523;28;20036;-61
2023/02/01 07:53:56;;;;;;;0.20;0.20;;;;;;;6.06;100.00;100095.88;4919562;29;20065;-61
2023/02/01 07:56:22;;;;;;;0.20;0.20;;;;;;;5.60;100.00;100089.16;4917109;29;20810;-59
2023/02/01 07:58:52;;;;;;;1.25;1.15;;;;;;;5.67;100.00;100092.03;4922268;29;20127;-60
2023/02/01 08:01:26;;;;;;;1.10;0.95;;;;;;;5.77;100.00;100094.25;4924314;29;20130;-61
2023/02/01 08:04:01;;;;;;;0.43;0.43;;;;;;;5.65;100.00;100104.19;4924127;29;20131;-61
2023/02/01 08:06:28;;;;;;;0.20;0.20;;;;;;;5.95;100.00;100111.63;4920082;29;20407;-62
2023/02/01 08:08:55;;;;;;;0.30;0.30;;;;;;;6.25;100.00;100112.88;4928619;29;20039;-61
2023/02/01 08:11:22;;;;;;;0.32;0.32;;;;;;;6.29;100.00;100121.78;4922286;29;20106;-61
2023/02/01 08:13:47;;;;;;;0.20;0.20;;;;;;;6.38;100.00;100109.06;4920000;29;20070;-61
2023/02/01 08:16:15;;;;;;;0.82;0.82;;;;;;;6.61;100.00;100121.91;4925972;29;20502;-61
2023/02/01 08:18:41;;;;;;;0.75;0.75;;;;;;;6.72;100.00;100118.38;4929911;29;21666;-61
2023/02/01 08:21:08;;;;;;;0.20;0.20;;;;;;;6.57;100.00;100123.69;4926264;29;20055;-61
2023/02/01 08:23:35;;;;;;;0.20;0.20;;;;;;;6.60;100.00;100125.69;4953850;28;20047;-61
2023/02/01 08:26:13;;;;;;;0.47;0.47;;;;;;;6.47;100.00;100132.97;4959955;28;20043;-61
2023/02/01 08:28:40;;;;;;;0.20;0.20;;;;;;;6.53;100.00;100134.28;4923621;29;20037;-61
2023/02/01 08:31:11;;;;;;;0.20;0.20;;;;;;;6.80;100.00;100136.19;4927878;28;20020;-61
2023/02/01 08:33:37;;;;;;;;;;;;;;;6.79;100.00;100144.56;4930909;29;20031;-61
2023/02/01 08:36:05;;;;;;;0.20;0.20;;;;;;;6.71;100.00;100134.78;4924145;29;20002;-61
2023/02/01 08:38:30;;;;;;;0.20;0.20;;;;;;;6.73;100.00;100157.41;4938311;28;20459;-62
2023/02/01 08:40:56;;;;;;;0.60;0.60;;;;;;;6.79;100.00;100140.00;4928381;29;20063;-63
2023/02/01 08:43:22;;;;;;;0.20;0.20;;;;;;;6.82;100.00;100141.97;4929813;29;20044;-62
2023/02/01 08:45:48;;;;;;;0.20;0.20;;;;;;;7.07;100.00;100139.94;4954108;28;20042;-62
2023/02/01 08:48:13;;;;;;;0.10;0.10;;;;;;;6.76;100.00;100134.53;4958762;28;20043;-62
2023/02/01 08:50:39;;;;;;;0.17;0.17;;;;;;;7.19;100.00;100127.28;4924007;29;20399;-62
2023/02/01 08:53:04;;;;;;;0.20;0.20;;;;;;;6.92;100.00;100114.72;4927090;29;20119;-61
2023/02/01 08:55:30;;;;;;;0.90;0.90;;;;;;;6.59;100.00;100122.25;4930694;29;20091;-62
2023/02/01 08:58:11;;;;;;;0.20;0.20;;;;;;;6.48;100.00;100129.19;4926829;29;20047;-60
2023/02/01 09:00:36;;;;;;;0.20;0.20;;;;;;;6.39;100.00;100120.53;4925720;29;20122;-61
2023/02/01 09:03:02;;;;;;;0.20;0.20;;;;;;;6.69;100.00;100108.38;4929936;29;20134;-59
2023/02/01 09:05:28;;;;;;;0.63;0.63;;;;;;;6.83;100.00;100107.97;4957591;28;20124;-60
2023/02/01 09:07:53;;;;;;;0.20;0.20;;;;;;;6.99;100.00;100101.50;4928492;29;20482;-61
2023/02/01 09:10:19;;;;;;;0.10;0.10;;;;;;;6.97;100.00;100106.44;4931576;29;20110;-61
2023/02/01 09:12:44;;;;;;;0.65;0.65;;;;;;;7.16;100.00;100111.88;4933380;29;20039;-60
2023/02/01 09:15:10;;;;;;;0.20;0.20;;;;;;;7.35;100.00;100113.88;4934145;29;20035;-61
2023/02/01 09:17:36;;;;;;;0.20;0.20;;;;;;;7.27;100.00;100110.25;4928625;29;20043;-61
2023/02/01 09:20:03;;;;;;;0.20;0.20;;;;;;;7.54;100.00;100105.13;4960610;28;20576;-61
2023/02/01 09:22:28;;;;;;;0.20;0.20;;;;;;;7.64;100.00;100115.34;4922154;29;20024;-60
2023/02/01 09:24:54;;;;;;;0.10;0.10;;;;;;;7.24;100.00;100104.81;4904777;29;20748;-60
2023/02/01 09:27:20;;;;;;;0.10;0.10;;;;;;;7.58;100.00;100092.59;4947088;29;20035;-60
2023/02/01 09:29:49;;;;;;;0.20;0.20;;;;;;;7.35;100.00;100107.75;4930076;29;20516;-61
2023/02/01 09:32:14;;;;;;;0.20;0.20;;;;;;;7.27;100.00;100099.56;4917922;29;20086;-62
2023/02/01 09:34:40;;;;;;;0.10;0.10;;;;;;;7.49;100.00;100110.78;4919927;29;20039;-61
2023/02/01 09:37:05;;;;;;;0.20;0.20;;;;;;;7.66;100.00;100094.31;4921771;29;20082;-60
2023/02/01 09:39:31;;;;;;;0.22;0.22;;;;;;;7.81;100.00;100112.28;4919852;29;20463;-61
2023/02/01 09:42:05;;;;;;;0.20;0.20;;;;;;;8.07;100.00;100099.81;4927554;29;20046;-61
2023/02/01 09:44:39;;;;;;;0.13;0.13;;;;;;;7.95;99.47;100134.03;4925655;29;20039;-60
2023/02/01 09:47:11;;;;;;;0.20;0.20;;;;;;;7.86;99.80;100122.72;4931051;29;21664;-61
2023/02/01 09:49:46;;;;;;;0.13;0.13;;;;;;;7.56;100.00;100125.09;4931244;29;20035;-60
2023/02/01 09:52:13;;;;;;;0.20;0.20;;;;;;;7.75;100.00;100133.22;4940743;29;20035;-61
2023/02/01 09:54:57;;;;;;;0.32;0.32;;;;;;;7.87;99.84;100135.78;4924002;29;20082;-60
2023/02/01 09:57:28;;;;;;;0.20;0.20;;;;;;;7.95;99.49;100136.72;4918735;29;20040;-60
2023/02/01 10:00:15;;;;;;;0.20;0.20;;;;;;;7.84;99.92;100114.28;4922403;29;20031;-61
2023/02/01 10:02:42;;;;;;;11.88;0.52;;;;;;;7.70;100.00;100119.31;4928947;29;20225;-60
2023/02/01 10:05:19;;;;;;;0.20;0.20;;;;;;;8.02;98.80;100131.50;4932106;29;20631;-61
2023/02/01 10:08:04;;;;;;;0.20;0.20;;;;;;;7.92;100.00;100114.06;4926560;29;21146;-61
2023/02/01 10:10:43;;;;;;;0.50;0.50;;;;;;;7.97;100.00;100129.09;4929536;29;20036;-62
2023/02/01 10:13:13;;;;;;;0.90;0.90;;;;;;;7.95;99.71;100124.09;4928457;29;20047;-61
2023/02/01 10:15:45;;;;;;;0.10;0.10;;;;;;;7.90;99.80;100118.22;4923704;29;20089;-61
2023/02/01 10:18:32;;;;;;;0.10;0.10;;;;;;;7.94;100.00;100135.94;4919697;29;20032;-61
2023/02/01 10:21:13;;;;;;;0.20;0.20;;;;;;;7.86;99.93;100118.13;4928018;29;20126;-61
2023/02/01 10:23:44;;;;;;;0.10;0.10;;;;;;;7.81;100.00;100113.06;4927030;29;20067;-61
2023/02/01 10:26:17;;;;;;;0.10;0.10;;;;;;;7.77;100.00;100136.31;4927019;29;20071;-61
2023/02/01 10:28:46;;;;;;;0.10;0.10;;;;;;;8.08;100.00;100116.69;4942488;29;20683;-62
2023/02/01 10:31:12;;;;;;;0.20;0.20;;;;;;;8.23;98.01;100129.28;4924662;29;20943;-61
2023/02/01 10:33:51;;;;;;;0.10;0.10;;;;;;;8.30;98.27;100118.75;4917457;29;20032;-61
2023/02/01 10:36:35;;;;;;;0.38;0.38;;;;;;;8.47;96.73;100117.53;4918597;29;20035;-61
2023/02/01 10:39:03;;;;;;;0.10;0.10;;;;;;;8.55;95.50;100111.19;4929867;29;20036;-62
2023/02/01 10:41:38;;;;;;;0.57;0.57;;;;;;;8.64;94.44;100109.81;4918937;29;20036;-60
2023/02/01 10:44:10;;;;;;;0.10;0.10;;;;;;;8.64;94.35;100109.81;4917953;29;20031;-60
2023/02/01 10:46:36;;;;;;;0.10;0.10;;;;;;;8.58;93.59;100100.50;4917732;29;20086;-61
2023/02/01 10:49:06;;;;;;;0.30;0.30;;;;;;;8.45;95.16;100111.75;4924828;29;20047;-61
2023/02/01 10:52:16;;;;;;;0.85;0.85;;;;;;;8.15;97.25;100095.38;4921209;29;20059;-60
2023/02/01 10:54:42;;;;;;;0.10;0.10;;;;;;;8.14;97.43;100091.94;4917259;29;20086;-61
2023/02/01 10:57:10;;;;;;;0.10;0.10;;;;;;;8.02;98.69;100083.25;4911772;29;20775;-61
2023/02/01 10:59:36;;;;;;;0.20;0.20;;;;;;;8.07;99.00;100085.66;4950497;28;20023;-61
2023/02/01 11:02:26;;;;;;;1.10;1.10;;;;;;;8.09;97.91;100078.81;4923735;29;20547;-61
2023/02/01 11:04:59;;;;;;;0.10;0.10;;;;;;;7.58;100.00;100085.34;4921332;29;20500;-62
2023/02/01 11:07:26;;;;;;;0.10;0.10;;;;;;;7.89;100.00;100077.25;4922564;29;20072;-60
2023/02/01 11:09:57;;;;;;;0.20;0.20;;;;;;;7.85;100.00;100068.34;4921411;29;20028;-60
2023/02/01 11:12:34;;;;;;;0.20;0.20;;;;;;;7.60;100.00;100063.56;4925897;29;20035;-62
2023/02/01 11:15:11;;;;;;;0.15;0.15;;;;;;;7.70;100.00;100046.94;4918365;29;20043;-62
2023/02/01 11:17:42;;;;;;;0.63;0.63;;;;;;;8.08;99.45;100039.72;4921098;29;20368;-62
2023/02/01 11:20:37;;;;;;;0.20;0.20;;;;;;;8.20;98.48;100030.75;4952951;28;20035;-60
2023/02/01 11:23:03;;;;;;;0.13;0.13;;;;;;;8.32;97.54;100008.41;4921273;29;20400;-62
2023/02/01 11:25:31;;;;;;;0.20;0.20;;;;;;;8.25;97.71;100011.72;4919388;29;20047;-61
2023/02/01 11:27:57;;;;;;;0.10;0.10;;;;;;;7.97;98.96;100021.88;4919278;29;20422;-62
2023/02/01 11:30:33;;;;;;;1.08;0.98;;;;;;;7.87;99.31;100012.50;4933106;28;20036;-62
2023/02/01 11:33:00;;;;;;;0.10;0.10;;;;;;;7.81;100.00;100013.88;4919355;29;20500;-61
2023/02/01 11:35:28;;;;;;;0.20;0.20;;;;;;;7.91;99.69;100007.19;4952816;28;20042;-62
2023/02/01 11:37:58;;;;;;;0.25;0.25;;;;;;;7.98;100.00;100021.50;4941473;28;20036;-62
2023/02/01 11:40:37;;;;;;;0.20;0.20;;;;;;;8.08;99.22;100009.44;4922100;29;20709;-62
2023/02/01 11:43:22;;;;;;;0.20;0.20;;;;;;;8.06;98.87;100009.81;4929752;29;20118;-61
2023/02/01 11:46:02;;;;;;;0.10;0.10;;;;;;;8.06;99.13;100007.13;4926306;29;20039;-62
2023/02/01 11:48:31;;;;;;;0.20;0.20;;;;;;;8.08;99.77;99990.69;4931564;29;20190;-62
2023/02/01 11:51:29;;;;;;;0.10;0.10;;;;;;;8.10;99.68;99993.78;4927569;29;20471;-61
2023/02/01 11:54:27;;;;;;;0.22;0.20;;;;;;;7.98;100.00;99983.19;4923308;29;20046;-61
2023/02/01 11:57:10;;;;;;;0.20;0.20;;;;;;;7.92;100.00;99976.56;4921212;29;20128;-61
2023/02/01 11:59:58;;;;;;;0.10;0.10;;;;;;;7.60;100.00;99985.88;4925381;29;20028;-60
2023/02/01 12:02:29;;;;;;;0.10;0.10;;;;;;;7.90;100.00;99978.81;4959659;28;20043;-61
2023/02/01 12:05:05;;;;;;;0.10;0.10;;;;;;;8.03;99.75;99969.53;4922561;29;20115;-61
2023/02/01 12:08:08;;;;;;;0.20;0.20;;;;;;;8.03;100.00;99977.56;4923404;29;20035;-61
2023/02/01 12:10:46;;;;;;;0.47;0.47;;;;;;;8.33;99.05;99964.34;4927499;29;20655;-61